Anderson, AL

2:46 AM CST on March 03, 2015 (GMT -0600)
Huntsville International | Change Station
CLOSE
Current Station
Airport
Location: Huntsville,
Elevation: 643 ft
Nearby Weather Stations
Active Advisory: Special Statement

Elev 643 ft 34.64 °N, 86.79 °W | Updated 53 minutes ago

Overcast
Overcast
48 °F
Feels Like 48 °F
N
0
Wind Variable Wind from North

Today
High -- | Low -- °F
--% Chance of Precip.
Yesterday
High -- | Low -- °F
Precip. -- in
6:16 AM 5:46 PM
Waxing Gibbous, 95% visible
Pressure 30.18 in
Visibility 5.0 miles
Clouds Overcast 1200 ft
Dew Point 44 °F
Humidity 86%
Rainfall 0.00 in
Snow Depth Not available.
UV 0 out of 12
Pollen 2.50 out of 12
Air Quality Not available.
Flu Activity Widespread
METAR KHSV 030753Z AUTO 00000KT 5SM BR OVC012 09/07 A3018 RMK AO2 SLP220 T00890067

More Conditions Fewer Conditions

Pressure 30.18 in
Visibility 5.0 miles
Clouds Overcast 1200 ft
Dew Point 44 °F
Humidity 86%
Rainfall 0.00 in
Snow Depth Not available.
UV 0 out of 12
Pollen 2.50 out of 12
Air Quality Not available.
Flu Activity Widespread
METAR KHSV 030753Z AUTO 00000KT 5SM BR OVC012 09/07 A3018 RMK AO2 SLP220 T00890067

More Conditions Fewer Conditions

10-Day Weather Forecast

Almanac

Astronomy

Mar. 03, 2015 Rise Set
Actual Time 6:16 AM CST 5:46 PM CST
Civil Twilight 5:50 AM CST 6:11 PM CST
Nautical Twilight 5:21 AM CST 6:41 PM CST
Astronomical Twilight 4:52 AM CST 7:10 PM CST
Moon 4:12 PM CST 4:52 AM CST
Length of Visible Light 12h 20m
Length of Day
11h 30m
Tomorrow will be 2m 10s longer.
Waxing Gibbous, 95% of the Moon is Illuminated
Today
Waxing Gibbous
Mar 5
Full
Mar 13
Last Quarter
Mar 20
New
Mar 27
First Quarter

Today's Extremes

State Highs State Lows

Community

WunderPhotos

Upload Photos

1,802,075 photos uploaded!

Nearby

Snow Depth

Station Depth Elevation
No new snow has been reported.

Earthquake Activity

City Distance Mag. Time & Date
No recent earthquake activity has been reported nearby.
Minimum magnitude displayed is 2.5.

Coastal Water Temperatures

Place Temperature
No Stations Reporting

Nearby Weather Stations